M I D A S
Marine Information and Data Acquisition System
Tripno 1269 of the Zeeleeuw from 2007-05-08 12:31:52 to 2007-05-08 13:35:23
Back to CruiseResearch ActivitiesStationsMapUnderway DataData graphs

EquipmentUnitsComment
TimeDGPSUTC
LatitudeDGPSDM.mWGS84
LongitudeDGPSDM.mWGS84
HeadingGyrodeg 
SOGDGPSknotsSpeed over ground
COGDGPSdegCourse over ground
DepthEcho soundermeters200 kHz
Missing or incorrect values are displayed as -999
Navigation data collected by the RV Zeeleeuw from 2007-05-08 07:31:53 to 2007-05-08 13:50:53
Time Latitude Longitude Heading SOG COG Depth
2007-05-08 07:32:58 51°13.795 2°55.67 329.2 8.3 326 10.8
2007-05-08 07:33:58 51°13.933 2°55.561 343.2 9.8 337 10.9
2007-05-08 07:34:58 51°14.086 2°55.466 343.2 9.9 339 11.6
2007-05-08 07:35:58 51°14.232 2°55.327 325.3 10.9 320 11.7
2007-05-08 07:36:58 51°14.355 2°55.091 309 12.1 305 11.6
2007-05-08 07:37:58 51°14.471 2°54.816 307 13 303 11.2
2007-05-08 07:38:58 51°14.566 2°54.503 293.9 13.2 289 11
2007-05-08 07:39:58 51°14.626 2°54.167 288.9 13.1 285 11.2
2007-05-08 07:40:58 51°14.66 2°53.828 280.6 12.9 277 11.4
2007-05-08 07:41:58 51°14.683 2°53.487 279.9 12.8 277 9.7
2007-05-08 07:42:58 51°14.691 2°53.15 268.9 12.8 264 9.2
2007-05-08 07:43:58 51°14.672 2°52.809 270.4 13 266 9.1
2007-05-08 07:44:58 51°14.659 2°52.468 270.1 12.9 267 9.4
2007-05-08 07:45:58 51°14.648 2°52.131 270.9 11.7 267 9.7
2007-05-08 07:46:58 51°14.612 2°51.968 228.3 3.3 222 9.7
2007-05-08 07:47:58 51°14.583 2°51.955 207.2 1.3 178 9.8
2007-05-08 07:48:58 51°14.569 2°51.962 201.2 0.6 139 9.2
2007-05-08 07:49:58 51°14.565 2°51.979 185.6 0.5 114 9.7
2007-05-08 07:50:58 51°14.562 2°51.997 171.1 1 110 9.7
2007-05-08 07:51:58 51°14.526 2°52.014 185.4 4.1 177 9.3
2007-05-08 07:52:58 51°14.459 2°51.949 234.7 4.3 234 9.3
2007-05-08 07:53:58 51°14.441 2°51.875 260.1 2.4 258 9.3
2007-05-08 07:54:58 51°14.44 2°51.827 270.7 1.6 271 9.3
2007-05-08 07:55:58 51°14.436 2°51.773 261.9 3.3 260 9.4
2007-05-08 07:56:58 51°14.433 2°51.695 275.3 3.4 277 9.5
2007-05-08 07:57:58 51°14.441 2°51.603 271.8 2.8 271 9.4
2007-05-08 07:58:58 51°14.426 2°51.522 248.2 3.7 242 9.3
2007-05-08 07:59:58 51°14.403 2°51.435 262 3.6 259 9.4
2007-05-08 08:00:58 51°14.396 2°51.337 263.7 3.7 257 9.1
2007-05-08 08:01:58 51°14.37 2°51.25 245.2 3.6 239 9.1
2007-05-08 08:02:58 51°14.352 2°51.155 264.8 3.9 266 9.3
2007-05-08 08:03:58 51°14.35 2°51.059 267.4 3.1 264 9.3
2007-05-08 08:04:58 51°14.333 2°50.985 247.6 3.2 240 9.5
2007-05-08 08:05:58 51°14.304 2°50.901 251 3.5 246 9.5
2007-05-08 08:06:58 51°14.291 2°50.808 266.3 3.6 264 9.2
2007-05-08 08:07:58 51°14.278 2°50.714 253.3 3.2 248 9.4
2007-05-08 08:08:58 51°14.248 2°50.644 238.5 3.2 231 9.5
2007-05-08 08:09:58 51°14.218 2°50.58 243.1 3.1 235 9
2007-05-08 08:10:58 51°14.193 2°50.506 249.1 3.3 244 9.1
2007-05-08 08:11:58 51°14.171 2°50.428 250.8 3.3 245 9.2
2007-05-08 08:12:58 51°14.145 2°50.346 246.2 3.5 242 9.2
2007-05-08 08:13:58 51°14.111 2°50.272 238 3.3 232 9.1
2007-05-08 08:14:58 51°14.079 2°50.206 242.3 3.5 238 9
2007-05-08 08:15:58 51°14.049 2°50.125 248.8 3.9 243 8.6
2007-05-08 08:16:58 51°14.024 2°50.032 252.7 3.9 246 8.6
2007-05-08 08:17:58 51°13.998 2°49.937 250.8 3.7 244 8.9
2007-05-08 08:18:58 51°13.97 2°49.863 244.2 3 234 8.7
2007-05-08 08:19:58 51°13.938 2°49.797 239.6 3.2 232 8.2
2007-05-08 08:20:58 51°13.906 2°49.733 239 3.1 237 8.4
2007-05-08 08:21:58 51°13.878 2°49.659 248.1 3.4 243 8.3
2007-05-08 08:22:58 51°13.856 2°49.575 255.2 3.6 251 8.4
2007-05-08 08:23:58 51°13.843 2°49.482 264.9 3.5 262 8.4
2007-05-08 08:24:58 51°13.839 2°49.39 267.9 3.5 265 8.7
2007-05-08 08:25:58 51°13.832 2°49.301 261.8 3.3 258 8.7
2007-05-08 08:26:58 51°13.813 2°49.221 249.9 3.1 242 8.5
2007-05-08 08:27:58 51°13.79 2°49.148 247.5 3.2 245 8.9
2007-05-08 08:28:58 51°13.767 2°49.075 250.4 3.1 244 8.9
2007-05-08 08:29:58 51°13.749 2°48.993 256.7 3.4 252 9
2007-05-08 08:30:58 51°13.737 2°48.911 264 3.1 262 8.6
2007-05-08 08:31:58 51°13.744 2°48.833 287 3.4 291 9.3
2007-05-08 08:32:58 51°13.787 2°48.779 346.4 3.5 352 9.3
2007-05-08 08:33:58 51°13.838 2°48.815 47.1 3.5 54 9.9
2007-05-08 08:34:58 51°13.837 2°48.903 117.9 3.4 122 9.8
2007-05-08 08:35:58 51°13.789 2°48.938 176.3 3.1 177 9
2007-05-08 08:36:58 51°13.742 2°48.91 221.1 2.9 223 8.5
2007-05-08 08:37:58 51°13.722 2°48.843 272.4 3.5 279 9.5
2007-05-08 08:38:58 51°13.759 2°48.801 347.6 2 349 8.6
2007-05-08 08:39:58 51°13.784 2°48.792 339.8 0.9 358 9.7
2007-05-08 08:40:58 51°13.798 2°48.79 344.6 1.2 350 9.7
2007-05-08 08:41:58 51°13.839 2°48.801 27.8 3.6 33 9.9
2007-05-08 08:42:58 51°13.885 2°48.924 64.7 8.9 57 10
2007-05-08 08:43:58 51°13.969 2°49.202 70.3 12.7 66 9.3
2007-05-08 08:44:58 51°14.049 2°49.509 70.2 12.5 71 9.1
2007-05-08 08:45:58 51°14.126 2°49.817 71.3 12.2 74 8.9
2007-05-08 08:46:58 51°14.204 2°50.126 73 12.7 68 8.9
2007-05-08 08:47:58 51°14.265 2°50.448 78.5 12.5 73 8.9
2007-05-08 08:48:58 51°14.32 2°50.771 81.9 13 76 8.7
2007-05-08 08:49:58 51°14.385 2°51.091 76.6 12.9 74 8.5
2007-05-08 08:50:58 51°14.438 2°51.412 75.3 12.8 82 8.5
2007-05-08 08:51:58 51°14.483 2°51.742 82.1 12.5 84 8.7
2007-05-08 08:52:58 51°14.524 2°52.071 81.2 12.8 76 8.5
2007-05-08 08:53:57 51°14.559 2°52.396 86.5 13.3 83 8.3
2007-05-08 08:54:58 51°14.588 2°52.734 82.4 12.4 83 8.4
2007-05-08 08:55:57 51°14.617 2°53.059 85.7 13 86 8
2007-05-08 08:56:58 51°14.633 2°53.396 90 12.9 90 7.8
2007-05-08 08:57:58 51°14.63 2°53.727 89.2 12.8 87 8.3
2007-05-08 08:58:58 51°14.583 2°54.062 111.3 12.7 101 10.4
2007-05-08 08:59:58 51°14.548 2°54.384 99.2 12.6 100 10.5
2007-05-08 09:00:58 51°14.474 2°54.693 111.2 12.5 114 10.2
2007-05-08 09:01:58 51°14.387 2°54.995 117.5 12.7 118 10
2007-05-08 09:02:58 51°14.264 2°55.269 130.8 12.6 131 10.8
2007-05-08 09:03:58 51°14.126 2°55.428 153.8 8.4 153 10.8
2007-05-08 09:04:58 51°14.006 2°55.511 160.2 8.2 158 10.2
2007-05-08 09:05:58 51°13.877 2°55.596 161.1 8.5 158 9.9
2007-05-08 09:06:58 51°13.767 2°55.696 144.4 6.5 139 9.9
2007-05-08 09:07:58 51°13.697 2°55.803 137.6 5.4 134 10.7
2007-05-08 09:08:58 51°13.65 2°55.901 127 4.1 123 9.1
2007-05-08 09:09:58 51°13.621 2°55.989 120.6 3.3 114 9.2
2007-05-08 09:10:58 51°13.607 2°56.062 105.1 2.6 102 8.2
2007-05-08 09:11:58 51°13.602 2°56.096 110.8 0.5 113 6.7
2007-05-08 09:12:58 51°13.601 2°56.1 116.5 0.1 58 7.2
2007-05-08 09:13:58 51°13.602 2°56.1 125.2 0.1 258 5.5
2007-05-08 09:14:58 51°13.602 2°56.099 128.7 0.1 66 -999
2007-05-08 09:15:58 51°13.602 2°56.1 126.6 -999 149 -999
2007-05-08 09:16:58 51°13.602 2°56.1 126.8 0.1 326 -999
2007-05-08 09:17:58 51°13.603 2°56.1 126.6 -999 354 -999
2007-05-08 09:18:58 51°13.601 2°56.099 126.6 -999 137 -999
2007-05-08 09:19:58 51°13.601 2°56.099 126.5 -999 127 -999
2007-05-08 09:20:58 51°13.601 2°56.1 126.4 -999 157 -999
2007-05-08 09:21:58 51°13.602 2°56.1 126.3 -999 155 -999
2007-05-08 09:22:58 51°13.603 2°56.101 126.3 0.1 344 -999
2007-05-08 09:23:58 51°13.603 2°56.1 126.4 -999 153 -999
2007-05-08 09:24:58 51°13.602 2°56.1 126.1 -999 167 -999
2007-05-08 09:25:58 51°13.603 2°56.1 126 -999 130 -999
2007-05-08 09:26:58 51°13.603 2°56.099 126 -999 194 -999
2007-05-08 09:27:58 51°13.602 2°56.1 126.1 -999 170 -999
2007-05-08 09:28:58 51°13.604 2°56.1 125.9 -999 243 -999
2007-05-08 09:29:58 51°13.603 2°56.099 125.9 -999 154 -999
2007-05-08 09:30:58 51°13.603 2°56.099 125.9 -999 154 -999
2007-05-08 09:31:58 51°13.603 2°56.099 125.8 -999 160 -999
2007-05-08 09:32:58 51°13.603 2°56.098 125.8 -999 127 -999
2007-05-08 09:33:58 51°13.602 2°56.098 125.7 -999 154 -999
2007-05-08 09:34:58 51°13.602 2°56.099 125.6 -999 359 -999
2007-05-08 09:35:58 51°13.601 2°56.1 125.6 -999 288 -999
2007-05-08 09:36:58 51°13.601 2°56.1 125.6 -999 134 -999
2007-05-08 09:37:58 51°13.601 2°56.099 125.5 -999 236 -999
2007-05-08 09:38:58 51°13.601 2°56.1 125.6 -999 334 -999
2007-05-08 09:39:58 51°13.601 2°56.1 125.7 -999 96 -999
2007-05-08 09:40:58 51°13.602 2°56.1 125.8 -999 117 -999
2007-05-08 09:41:58 51°13.602 2°56.1 125.8 -999 149 -999
2007-05-08 09:42:58 51°13.602 2°56.099 126 -999 231 -999
2007-05-08 09:43:58 51°13.602 2°56.099 126 0.1 294 -999
2007-05-08 09:44:58 51°13.602 2°56.099 125.9 -999 328 -999
2007-05-08 09:45:58 51°13.602 2°56.099 126.1 0.1 216 -999
2007-05-08 09:46:58 51°13.602 2°56.1 126.2 0.1 221 -999
2007-05-08 09:47:58 51°13.602 2°56.099 126.2 -999 80 -999
2007-05-08 09:48:58 51°13.603 2°56.099 126.2 -999 247 -999
2007-05-08 09:49:58 51°13.603 2°56.099 126.2 -999 329 -999
2007-05-08 09:50:58 51°13.602 2°56.1 126.3 -999 276 -999
2007-05-08 09:51:58 51°13.603 2°56.1 126.3 -999 135 -999
2007-05-08 09:52:58 51°13.603 2°56.1 126.4 -999 291 -999
2007-05-08 09:53:58 51°13.603 2°56.099 126.5 -999 88 -999
2007-05-08 09:54:58 51°13.603 2°56.099 126.5 -999 72 -999
2007-05-08 09:55:58 51°13.603 2°56.1 126.4 -999 135 -999
2007-05-08 09:56:58 51°13.602 2°56.1 126.6 -999 168 -999
2007-05-08 09:57:58 51°13.603 2°56.1 126.5 -999 16 -999
2007-05-08 09:58:58 51°13.602 2°56.099 126.6 -999 139 -999
2007-05-08 09:59:58 51°13.602 2°56.099 126.5 -999 169 -999
2007-05-08 10:00:58 51°13.602 2°56.099 126.3 0.1 189 -999
2007-05-08 10:01:58 51°13.602 2°56.099 126.3 -999 323 -999
2007-05-08 10:02:58 51°13.602 2°56.099 126.8 -999 254 -999
2007-05-08 10:03:58 51°13.602 2°56.1 126.8 -999 196 -999
2007-05-08 10:04:58 51°13.602 2°56.1 127 -999 10 -999
2007-05-08 10:05:58 51°13.602 2°56.1 127 -999 347 -999
2007-05-08 10:06:58 51°13.602 2°56.1 127 -999 317 -999
2007-05-08 10:07:58 51°13.602 2°56.099 127.1 -999 334 -999
2007-05-08 10:08:58 51°13.602 2°56.099 127 -999 346 -999
2007-05-08 10:09:58 51°13.602 2°56.099 127 -999 211 -999
2007-05-08 10:10:58 51°13.603 2°56.098 127 -999 311 -999
2007-05-08 10:11:58 51°13.603 2°56.098 127 -999 256 -999
2007-05-08 10:12:58 51°13.603 2°56.098 127.1 -999 227 -999
2007-05-08 10:13:58 51°13.603 2°56.098 127 -999 195 -999
2007-05-08 10:14:58 51°13.603 2°56.098 127.1 -999 274 -999
2007-05-08 10:15:58 51°13.603 2°56.098 127 -999 65 -999
2007-05-08 10:16:58 51°13.603 2°56.099 127 -999 150 -999
2007-05-08 10:17:58 51°13.603 2°56.098 127 -999 319 -999
2007-05-08 10:18:58 51°13.604 2°56.099 127 -999 20 -999
2007-05-08 10:19:58 51°13.604 2°56.099 127 -999 85 -999
2007-05-08 10:20:58 51°13.603 2°56.099 127.3 -999 261 -999
2007-05-08 10:21:58 51°13.603 2°56.099 127 -999 327 -999
2007-05-08 10:22:58 51°13.602 2°56.1 126.8 -999 357 -999
2007-05-08 10:23:58 51°13.602 2°56.1 126.7 -999 27 -999
2007-05-08 10:24:58 51°13.602 2°56.1 126.9 -999 229 -999
2007-05-08 10:25:58 51°13.602 2°56.1 126.6 -999 42 -999
2007-05-08 10:26:58 51°13.602 2°56.1 126.4 -999 49 -999
2007-05-08 10:27:58 51°13.602 2°56.1 126.3 -999 151 -999
2007-05-08 10:28:58 51°13.602 2°56.1 126.4 -999 163 -999
2007-05-08 10:29:58 51°13.602 2°56.1 126.4 -999 215 -999
2007-05-08 10:30:58 51°13.602 2°56.1 126.1 -999 177 -999
2007-05-08 10:31:58 51°13.602 2°56.1 126.2 -999 67 -999
2007-05-08 10:32:58 51°13.602 2°56.1 126.2 -999 176 -999
2007-05-08 10:33:58 51°13.602 2°56.1 126.3 -999 307 -999
2007-05-08 10:34:58 51°13.602 2°56.1 126.1 -999 275 -999
2007-05-08 10:35:58 51°13.603 2°56.1 126.2 -999 62 -999
2007-05-08 10:36:58 51°13.603 2°56.1 126.2 -999 290 -999
2007-05-08 10:37:58 51°13.602 2°56.099 126.2 -999 25 -999
2007-05-08 10:38:58 51°13.603 2°56.099 126.2 0.1 146 -999
2007-05-08 10:39:58 51°13.602 2°56.099 126.2 -999 172 -999
2007-05-08 10:40:58 51°13.601 2°56.099 126.1 -999 178 -999
2007-05-08 10:41:58 51°13.601 2°56.099 126.2 -999 183 -999
2007-05-08 10:42:58 51°13.602 2°56.099 126.2 -999 302 -999
2007-05-08 10:43:58 51°13.602 2°56.099 126.2 -999 232 -999
2007-05-08 10:44:58 51°13.602 2°56.099 126.2 0.1 38 -999
2007-05-08 10:45:58 51°13.602 2°56.099 126.3 0.1 204 -999
2007-05-08 10:46:58 51°13.602 2°56.1 126.2 -999 45 -999
2007-05-08 10:47:58 51°13.602 2°56.1 126.2 -999 318 -999
2007-05-08 10:48:58 51°13.602 2°56.1 126.3 -999 28 -999
2007-05-08 10:49:58 51°13.602 2°56.1 126.4 -999 189 -999
2007-05-08 10:50:58 51°13.602 2°56.1 126.4 0.1 53 -999
2007-05-08 10:51:58 51°13.602 2°56.1 126.4 -999 5 -999
2007-05-08 10:52:58 51°13.602 2°56.1 126.4 -999 200 -999
2007-05-08 10:53:58 51°13.602 2°56.099 126.2 -999 313 -999
2007-05-08 10:54:58 51°13.602 2°56.1 126.4 -999 214 -999
2007-05-08 10:55:58 51°13.602 2°56.099 126.6 -999 175 -999
2007-05-08 10:56:58 51°13.602 2°56.099 126.6 -999 111 -999
2007-05-08 10:57:58 51°13.602 2°56.099 126.5 -999 81 -999
2007-05-08 10:58:58 51°13.602 2°56.099 126.4 -999 138 -999
2007-05-08 10:59:58 51°13.602 2°56.1 126.7 -999 186 -999
2007-05-08 11:00:58 51°13.602 2°56.1 126.6 -999 167 -999
2007-05-08 11:01:58 51°13.602 2°56.1 126.5 -999 154 -999
2007-05-08 11:02:58 51°13.602 2°56.1 126.5 -999 274 -999
2007-05-08 11:03:58 51°13.602 2°56.1 126.6 -999 21 -999
2007-05-08 11:04:58 51°13.602 2°56.1 126.5 -999 206 -999
2007-05-08 11:05:58 51°13.602 2°56.1 126.6 -999 118 -999
2007-05-08 11:06:58 51°13.602 2°56.1 126.8 -999 23 -999
2007-05-08 11:07:58 51°13.602 2°56.1 126.8 -999 35 -999
2007-05-08 11:08:58 51°13.602 2°56.1 126.9 -999 21 -999
2007-05-08 11:09:58 51°13.602 2°56.1 126.8 -999 214 -999
2007-05-08 11:10:58 51°13.602 2°56.1 126.2 -999 187 -999
2007-05-08 11:11:58 51°13.602 2°56.1 126.3 -999 340 -999
2007-05-08 11:12:58 51°13.602 2°56.1 127 -999 173 -999
2007-05-08 11:13:58 51°13.602 2°56.099 127 -999 191 -999
2007-05-08 11:14:58 51°13.602 2°56.099 126.9 -999 342 -999
2007-05-08 11:15:58 51°13.602 2°56.099 126.7 -999 184 -999
2007-05-08 11:16:58 51°13.602 2°56.099 126.1 -999 52 -999
2007-05-08 11:17:58 51°13.602 2°56.099 126.6 -999 139 -999
2007-05-08 11:18:58 51°13.602 2°56.099 126.8 -999 166 -999
2007-05-08 11:19:58 51°13.602 2°56.099 126.7 -999 173 -999
2007-05-08 11:20:58 51°13.602 2°56.099 126.6 -999 155 -999
2007-05-08 11:21:58 51°13.602 2°56.099 126.6 -999 292 -999
2007-05-08 11:22:58 51°13.602 2°56.1 126.2 -999 170 -999
2007-05-08 11:23:58 51°13.602 2°56.1 126.4 -999 40 -999
2007-05-08 11:24:58 51°13.602 2°56.099 126.8 -999 308 -999
2007-05-08 11:25:58 51°13.602 2°56.099 125.8 -999 212 -999
2007-05-08 11:26:58 51°13.602 2°56.099 126.5 -999 241 -999
2007-05-08 11:27:58 51°13.602 2°56.098 126.4 -999 217 -999
2007-05-08 11:28:58 51°13.602 2°56.099 126.4 -999 13 -999
2007-05-08 11:29:58 51°13.602 2°56.099 126.2 -999 269 -999
2007-05-08 11:30:58 51°13.602 2°56.1 126.2 -999 16 -999
2007-05-08 11:31:58 51°13.602 2°56.1 126.2 -999 350 -999
2007-05-08 11:32:58 51°13.602 2°56.101 126.2 -999 288 -999
2007-05-08 11:33:58 51°13.602 2°56.1 125.9 -999 21 -999
2007-05-08 11:34:58 51°13.603 2°56.1 125.7 -999 352 -999
2007-05-08 11:35:58 51°13.602 2°56.101 125.5 -999 202 -999
2007-05-08 11:36:58 51°13.602 2°56.1 125.5 -999 193 -999
2007-05-08 11:37:58 51°13.602 2°56.099 125.5 -999 228 -999
2007-05-08 11:38:58 51°13.602 2°56.099 125.7 -999 120 -999
2007-05-08 11:39:58 51°13.602 2°56.099 126 -999 181 -999
2007-05-08 11:40:58 51°13.602 2°56.099 126.3 -999 142 -999
2007-05-08 11:41:58 51°13.602 2°56.099 126.2 -999 96 -999
2007-05-08 11:42:58 51°13.602 2°56.1 125.9 -999 10 -999
2007-05-08 11:43:58 51°13.603 2°56.099 126.2 0.1 352 -999
2007-05-08 11:44:58 51°13.601 2°56.098 126.5 0.1 162 -999
2007-05-08 11:45:58 51°13.602 2°56.098 126.4 -999 245 -999
2007-05-08 11:46:58 51°13.601 2°56.098 126.3 -999 268 -999
2007-05-08 11:47:58 51°13.6 2°56.099 126.6 0.1 236 -999
2007-05-08 11:48:58 51°13.601 2°56.099 126.5 -999 349 5.8
2007-05-08 11:49:58 51°13.601 2°56.099 125.8 -999 165 5.6
2007-05-08 11:50:58 51°13.601 2°56.099 126.7 -999 260 5.9
2007-05-08 11:51:58 51°13.601 2°56.1 126.7 -999 111 5.8
2007-05-08 11:52:58 51°13.602 2°56.101 125.6 -999 72 5.5
2007-05-08 11:53:58 51°13.603 2°56.1 125.6 -999 351 5.5
2007-05-08 11:54:58 51°13.602 2°56.099 125.8 -999 135 5.7
2007-05-08 11:55:58 51°13.602 2°56.099 125.9 -999 316 5.7
2007-05-08 11:56:58 51°13.602 2°56.1 126.4 -999 88 5.8
2007-05-08 11:57:58 51°13.601 2°56.1 127.6 0.1 122 6.7
2007-05-08 11:58:58 51°13.602 2°56.101 126.2 -999 301 6.4
2007-05-08 11:59:58 51°13.602 2°56.1 127 -999 278 6.4
2007-05-08 12:00:58 51°13.602 2°56.1 127.2 0.1 152 6.5
2007-05-08 12:01:58 51°13.601 2°56.1 122.6 0.1 204 6.6
2007-05-08 12:02:58 51°13.601 2°56.097 112.6 0.5 292 7.5
2007-05-08 12:03:58 51°13.617 2°56.046 113.7 3.1 295 -999
2007-05-08 12:04:58 51°13.641 2°55.952 115.7 4.1 294 -999
2007-05-08 12:05:58 51°13.672 2°55.852 115.2 3.8 296 -999
2007-05-08 12:06:58 51°13.692 2°55.776 99.3 2.6 289 10.9
2007-05-08 12:07:58 51°13.697 2°55.725 72.9 1.1 262 11.5
2007-05-08 12:08:58 51°13.714 2°55.728 16.3 2.5 -999 11.9
2007-05-08 12:09:58 51°13.773 2°55.686 333.6 5 329 10.5
2007-05-08 12:10:58 51°13.868 2°55.611 341.1 8.3 336 10.5
2007-05-08 12:11:58 51°14.015 2°55.511 341.1 10.4 335 10.9
2007-05-08 12:12:58 51°14.178 2°55.377 336.1 11.5 332 -999
2007-05-08 12:13:58 51°14.324 2°55.17 315.3 12.3 309 10.9
2007-05-08 12:14:58 51°14.437 2°54.894 304.9 12.7 301 11
2007-05-08 12:15:58 51°14.535 2°54.596 298.3 12.7 293 10.8
2007-05-08 12:16:58 51°14.608 2°54.279 291.9 12.7 287 11.4
2007-05-08 12:17:57 51°14.652 2°53.957 284.1 12.6 276 11.4
2007-05-08 12:18:58 51°14.649 2°53.617 272.2 12.5 268 8.9
2007-05-08 12:19:57 51°14.642 2°53.292 273.6 12.5 268 8.7
2007-05-08 12:20:58 51°14.634 2°52.951 273.8 12.7 269 9.1
2007-05-08 12:21:58 51°14.629 2°52.611 273.3 12.8 269 9.3
2007-05-08 12:22:58 51°14.623 2°52.272 273.5 12.9 268 9.3
2007-05-08 12:23:58 51°14.618 2°51.932 273.9 12.8 268 9.7
2007-05-08 12:24:58 51°14.613 2°51.592 274.1 12.8 269 10
2007-05-08 12:25:58 51°14.594 2°51.296 256.9 8.3 246 10.4
2007-05-08 12:26:58 51°14.535 2°51.201 218.4 3.5 208 10.4
2007-05-08 12:27:58 51°14.497 2°51.182 205.9 1.7 186 10.1
2007-05-08 12:28:58 51°14.467 2°51.179 199.2 2.7 187 10.1
2007-05-08 12:29:58 51°14.413 2°51.151 215.5 3.7 211 9.5
2007-05-08 12:30:58 51°14.371 2°51.093 241.4 3.1 232 9.9
2007-05-08 12:31:58 51°14.351 2°51.011 264.1 4 260 9.8
2007-05-08 12:32:58 51°14.348 2°50.912 274.8 3.3 271 9.8
2007-05-08 12:33:58 51°14.343 2°50.834 264.1 3.2 256 9.8
2007-05-08 12:34:58 51°14.311 2°50.744 242.3 4.3 234 9.8
2007-05-08 12:35:57 51°14.274 2°50.663 243.8 3.5 233 9.8
2007-05-08 12:36:58 51°14.242 2°50.6 245.4 3 240 9.7
2007-05-08 12:37:58 51°14.22 2°50.525 258.9 3 250 9.7
2007-05-08 12:38:58 51°14.211 2°50.444 269.2 3.2 261 9.6
2007-05-08 12:39:58 51°14.199 2°50.354 259.1 3.4 250 9.8
2007-05-08 12:40:58 51°14.171 2°50.278 246.8 3.4 239 9.8
2007-05-08 12:41:58 51°14.144 2°50.197 253.8 3.4 247 9.7
2007-05-08 12:42:58 51°14.122 2°50.111 254 3.6 241 9.8
2007-05-08 12:43:58 51°14.086 2°50.036 234 3.6 224 9.6
2007-05-08 12:44:58 51°14.043 2°49.969 234 3.6 227 9.4
2007-05-08 12:45:58 51°14.011 2°49.892 251.8 3.6 247 9.4
2007-05-08 12:46:58 51°13.997 2°49.801 267.1 3.4 265 9.3
2007-05-08 12:47:58 51°13.993 2°49.712 267.1 3.2 261 9.7
2007-05-08 12:48:58 51°13.975 2°49.628 252.2 3.5 245 9.8
2007-05-08 12:49:58 51°13.952 2°49.542 253.3 3.6 246 9.7
2007-05-08 12:50:58 51°13.923 2°49.461 245.1 3.7 237 9.8
2007-05-08 12:51:58 51°13.889 2°49.385 243.8 3.5 235 10
2007-05-08 12:52:58 51°13.859 2°49.308 249.7 3.3 239 9.6
2007-05-08 12:53:58 51°13.839 2°49.225 261 3.2 252 9.8
2007-05-08 12:54:58 51°13.822 2°49.144 255.6 3.3 249 9.8
2007-05-08 12:55:58 51°13.794 2°49.065 243.1 3.4 236 9.8
2007-05-08 12:56:58 51°13.759 2°48.991 239.1 3.6 232 9.6
2007-05-08 12:57:58 51°13.721 2°48.927 234.7 3.1 223 9.4
2007-05-08 12:58:58 51°13.687 2°48.868 242.7 2.5 231 9.9
2007-05-08 12:59:58 51°13.666 2°48.795 258.1 3.5 252 9.8
2007-05-08 13:00:58 51°13.641 2°48.711 244.9 3.5 235 9.9
2007-05-08 13:01:58 51°13.611 2°48.639 243.3 3.1 235 9.9
2007-05-08 13:02:58 51°13.58 2°48.583 242.4 2.7 231 9.8
2007-05-08 13:03:58 51°13.56 2°48.518 258.4 3.1 256 10.1
2007-05-08 13:04:58 51°13.559 2°48.424 277.8 3.9 280 10.1
2007-05-08 13:05:58 51°13.576 2°48.339 288.7 2.9 294 10.6
2007-05-08 13:06:58 51°13.605 2°48.284 306.2 2.9 319 10.9
2007-05-08 13:07:58 51°13.65 2°48.253 338.6 2.9 353 10.6
2007-05-08 13:08:58 51°13.702 2°48.273 18.4 3 25 11.8
2007-05-08 13:09:58 51°13.74 2°48.298 6.6 2 19 12.2
2007-05-08 13:10:58 51°13.764 2°48.312 349.1 1.2 21 11.8
2007-05-08 13:11:58 51°13.778 2°48.33 337.2 1.3 51 12.3
2007-05-08 13:12:58 51°13.79 2°48.352 339 1.7 17 12.2
2007-05-08 13:13:58 51°13.845 2°48.388 32.2 4.8 41 12.2
2007-05-08 13:14:58 51°13.882 2°48.528 72.8 6.6 73 12.1
2007-05-08 13:15:58 51°13.924 2°48.698 68.9 7.1 68 11.9
2007-05-08 13:16:58 51°13.973 2°48.875 67.4 7.4 62 12
2007-05-08 13:17:58 51°14.021 2°49.057 70.4 7.4 70 11.7
2007-05-08 13:18:58 51°14.065 2°49.244 73.6 7.6 71 11.6
2007-05-08 13:19:58 51°14.104 2°49.434 73.8 7.6 72 11.4
2007-05-08 13:20:59 51°14.145 2°49.635 72.7 9.2 76 11.3
2007-05-08 13:21:58 51°14.207 2°49.926 75.4 12.8 76 10.9
2007-05-08 13:22:58 51°14.271 2°50.256 78.8 13.5 77 10.7
2007-05-08 13:23:57 51°14.333 2°50.589 76.2 13.2 77 10.6
2007-05-08 13:24:58 51°14.379 2°50.938 84.6 12.9 79 10.5
2007-05-08 13:25:58 51°14.426 2°51.274 78.9 13.3 78 10.5
2007-05-08 13:26:59 51°14.485 2°51.619 73.8 13.4 73 10.3
2007-05-08 13:27:58 51°14.548 2°51.956 75.7 13.5 78 10.4
2007-05-08 13:28:58 51°14.586 2°52.31 80.8 13.3 80 10.4
2007-05-08 13:29:58 51°14.613 2°52.658 87.6 12.9 85 10.4
2007-05-08 13:30:58 51°14.632 2°53.008 86.1 13.3 82 10
2007-05-08 13:31:59 51°14.642 2°53.368 92.9 13 93 9.9
2007-05-08 13:32:58 51°14.647 2°53.719 93.1 14.1 90 10.4
2007-05-08 13:33:59 51°14.626 2°54.083 106.4 13.6 106 12.7
2007-05-08 13:34:59 51°14.565 2°54.423 108.8 13.3 118 12
2007-05-08 13:35:59 51°14.48 2°54.748 119.9 13.2 111 12.5
2007-05-08 13:36:59 51°14.376 2°55.06 128 13.2 128 12.1
2007-05-08 13:37:58 51°14.232 2°55.307 138.5 12.8 138 12.7
2007-05-08 13:38:58 51°14.069 2°55.467 156.1 10 153 12.5
2007-05-08 13:39:57 51°13.947 2°55.551 161.3 6.8 157 12
2007-05-08 13:40:58 51°13.847 2°55.614 162.9 6.1 159 11.8
2007-05-08 13:41:58 51°13.768 2°55.682 145.5 4.7 140 12.1
2007-05-08 13:42:58 51°13.715 2°55.764 135.7 4.3 130 13.2
2007-05-08 13:43:58 51°13.671 2°55.852 132.8 4.3 127 10.9
2007-05-08 13:44:58 51°13.633 2°55.942 120.7 3.6 114 11.2
2007-05-08 13:45:58 51°13.618 2°56.023 109.1 2.9 106 11.5
2007-05-08 13:46:58 51°13.606 2°56.082 114 1.7 110 9.9
2007-05-08 13:47:58 51°13.602 2°56.098 125.7 0.2 118 8.9
2007-05-08 13:48:57 51°13.602 2°56.099 127.3 -999 136 7.1
2007-05-08 13:49:58 51°13.602 2°56.099 128.5 0.2 269 8.6